createdAt,value
2022-10-12T00:01:10.125Z,101480.84
2022-10-12T00:03:39.571Z,101489.66
2022-10-12T00:06:12.688Z,101494.09
2022-10-12T00:08:40.990Z,101486.19
2022-10-12T00:11:11.557Z,101495.88
2022-10-12T00:13:38.166Z,101498.53
2022-10-12T00:16:07.034Z,101493.31
2022-10-12T00:18:34.777Z,101498.63
2022-10-12T00:21:06.284Z,101499.50
2022-10-12T00:23:34.185Z,101497.78
2022-10-12T00:26:06.044Z,101502.16
2022-10-12T00:28:33.498Z,101503.91
2022-10-12T00:31:01.558Z,101503.03
2022-10-12T00:33:29.414Z,101506.53
2022-10-12T00:35:56.502Z,101511.84
2022-10-12T00:38:23.611Z,101514.44
2022-10-12T00:40:50.298Z,101519.72
2022-10-12T00:43:39.165Z,101520.59
2022-10-12T00:46:13.961Z,101537.28
2022-10-12T00:48:41.659Z,101524.09
2022-10-12T00:51:09.925Z,101538.19
2022-10-12T00:53:43.062Z,101538.19
2022-10-12T00:56:16.265Z,101550.44
2022-10-12T00:58:43.982Z,101552.22
2022-10-12T01:01:10.984Z,101550.47
2022-10-12T01:03:37.966Z,101553.13
2022-10-12T01:06:07.111Z,101549.63
2022-10-12T01:08:34.424Z,101548.75
2022-10-12T01:11:01.063Z,101556.66
2022-10-12T01:13:27.933Z,101547.88
2022-10-12T01:16:02.487Z,101554.88
2022-10-12T01:18:33.656Z,101563.69
2022-10-12T01:21:19.745Z,101557.56
2022-10-12T01:24:05.283Z,101565.47
2022-10-12T01:27:16.706Z,101566.34
2022-10-12T01:30:05.487Z,101568.09
2022-10-12T01:32:56.595Z,101568.09
2022-10-12T01:35:38.314Z,101575.13
2022-10-12T01:38:38.656Z,101575.13
2022-10-12T01:41:29.403Z,101575.13
2022-10-12T01:43:56.015Z,101572.50
2022-10-12T01:46:25.606Z,101570.75
2022-10-12T01:48:55.465Z,101579.50
2022-10-12T01:51:53.396Z,101570.75
2022-10-12T01:54:43.388Z,101577.75
2022-10-12T01:57:19.044Z,101573.34
2022-10-12T02:00:03.950Z,101574.25
2022-10-12T02:02:55.073Z,101570.78
2022-10-12T02:05:42.579Z,101580.44
2022-10-12T02:08:09.106Z,101585.75
2022-10-12T02:10:40.389Z,101594.53
2022-10-12T02:13:14.412Z,101588.38
2022-10-12T02:15:43.781Z,101591.91
2022-10-12T02:18:15.667Z,101596.28
2022-10-12T02:20:42.663Z,101597.19
2022-10-12T02:23:10.491Z,101600.66
2022-10-12T02:25:37.630Z,101605.97
2022-10-12T02:28:12.069Z,101601.59
2022-10-12T02:30:52.743Z,101611.22
2022-10-12T02:33:26.190Z,101604.25
2022-10-12T02:36:00.886Z,101607.72
2022-10-12T02:38:39.947Z,101617.41
2022-10-12T02:41:15.326Z,101623.53
2022-10-12T02:44:01.229Z,101619.16
2022-10-12T02:46:33.947Z,101613.91
2022-10-12T02:49:02.805Z,101610.41
2022-10-12T02:51:31.242Z,101621.78
2022-10-12T02:54:00.398Z,101623.53
2022-10-12T02:56:27.102Z,101628.78
2022-10-12T02:58:53.760Z,101614.78
2022-10-12T03:01:22.659Z,101619.13
2022-10-12T03:03:49.328Z,101617.41
2022-10-12T03:06:16.495Z,101621.78
2022-10-12T03:08:43.142Z,101628.78
2022-10-12T03:11:12.911Z,101617.41
2022-10-12T03:13:39.536Z,101641.06
2022-10-12T03:16:09.079Z,101638.47
2022-10-12T03:18:36.459Z,101631.44
2022-10-12T03:21:03.689Z,101641.06
2022-10-12T03:23:30.887Z,101642.84
2022-10-12T03:25:57.516Z,101646.34
2022-10-12T03:28:26.757Z,101643.69
2022-10-12T03:30:53.652Z,101641.09
2022-10-12T03:33:20.341Z,101645.47
2022-10-12T03:35:49.026Z,101645.47
2022-10-12T03:38:16.984Z,101649.84
2022-10-12T03:40:44.261Z,101644.59
2022-10-12T03:43:11.616Z,101647.19
2022-10-12T03:45:39.409Z,101651.56
2022-10-12T03:48:08.415Z,101651.56
2022-10-12T03:50:35.505Z,101653.31
2022-10-12T03:53:04.015Z,101650.69
2022-10-12T03:55:34.633Z,101655.94
2022-10-12T03:58:01.302Z,101657.72
2022-10-12T04:00:28.283Z,101661.22
2022-10-12T04:03:02.326Z,101668.22
2022-10-12T04:05:30.002Z,101665.59
2022-10-12T04:07:56.942Z,101672.59
2022-10-12T04:10:26.220Z,101671.72
2022-10-12T04:12:52.930Z,101673.44
2022-10-12T04:17:54.359Z,101676.94
2022-10-12T04:20:20.990Z,101676.91
2022-10-12T04:22:50.356Z,101691.78
2022-10-12T04:25:17.063Z,101688.31
2022-10-12T04:27:46.728Z,101701.44
2022-10-12T04:30:13.685Z,101704.03
2022-10-12T04:32:43.575Z,101708.41
2022-10-12T04:35:12.489Z,101701.38
2022-10-12T04:37:39.412Z,101705.72
2022-10-12T04:40:06.841Z,101703.09
2022-10-12T04:42:36.187Z,101712.72
2022-10-12T04:45:02.910Z,101718.84
2022-10-12T04:47:29.713Z,101721.44
2022-10-12T04:49:56.380Z,101724.94
2022-10-12T04:52:23.097Z,101718.81
2022-10-12T04:54:49.732Z,101714.44
2022-10-12T04:57:16.314Z,101716.16
2022-10-12T04:59:43.165Z,101720.56
2022-10-12T05:02:09.816Z,101732.81
2022-10-12T05:04:36.421Z,101735.38
2022-10-12T05:07:03.078Z,101732.72
2022-10-12T05:09:29.723Z,101732.69
2022-10-12T05:11:56.411Z,101729.16
2022-10-12T05:14:23.010Z,101731.81
2022-10-12T05:16:49.606Z,101737.06
2022-10-12T05:19:16.217Z,101744.09
2022-10-12T05:21:42.811Z,101739.72
2022-10-12T05:24:10.788Z,101741.47
2022-10-12T05:26:37.374Z,101747.53
2022-10-12T05:29:04.871Z,101747.53
2022-10-12T05:31:31.451Z,101757.16
2022-10-12T05:33:58.154Z,101751.03
2022-10-12T05:36:24.915Z,101757.19
2022-10-12T05:38:51.503Z,101754.56
2022-10-12T05:41:18.318Z,101751.09
2022-10-12T05:43:44.922Z,101754.56
2022-10-12T05:46:14.543Z,101756.31
2022-10-12T05:48:41.348Z,101763.31
2022-10-12T05:51:07.958Z,101762.44
2022-10-12T05:53:34.558Z,101759.81
2022-10-12T05:56:01.908Z,101759.78
2022-10-12T05:58:30.438Z,101752.78
2022-10-12T06:01:05.533Z,101765.06
2022-10-12T06:03:34.980Z,101765.06
2022-10-12T06:06:03.149Z,101764.22
2022-10-12T06:08:31.334Z,101765.97
2022-10-12T06:10:58.044Z,101772.91
2022-10-12T06:13:25.407Z,101778.16
2022-10-12T06:15:52.171Z,101779.94
2022-10-12T06:18:19.588Z,101776.44
2022-10-12T06:20:48.086Z,101777.31
2022-10-12T06:23:15.188Z,101773.84
2022-10-12T06:25:42.024Z,101776.44
2022-10-12T06:28:08.657Z,101778.19
2022-10-12T06:30:35.324Z,101781.69
2022-10-12T06:33:02.000Z,101778.19
2022-10-12T06:35:28.866Z,101775.56
2022-10-12T06:37:55.493Z,101770.34
2022-10-12T06:40:22.127Z,101774.75
2022-10-12T06:42:49.710Z,101787.88
2022-10-12T06:45:17.101Z,101775.63
2022-10-12T06:47:43.786Z,101772.16
2022-10-12T06:50:11.027Z,101766.03
2022-10-12T06:52:38.353Z,101773.03
2022-10-12T06:55:07.031Z,101779.16
2022-10-12T06:57:33.654Z,101777.47
2022-10-12T07:00:00.276Z,101780.97
2022-10-12T07:02:26.943Z,101782.75
2022-10-12T07:04:53.748Z,101781.03
2022-10-12T07:07:20.407Z,101787.19
2022-10-12T07:09:47.117Z,101786.34
2022-10-12T07:12:13.711Z,101772.38
2022-10-12T07:14:40.327Z,101782.06
2022-10-12T07:17:06.937Z,101788.19
2022-10-12T07:19:33.594Z,101784.75
2022-10-12T07:22:00.825Z,101787.38
2022-10-12T07:24:35.793Z,101787.41
2022-10-12T07:27:09.927Z,101788.31
2022-10-12T07:29:37.935Z,101783.06
2022-10-12T07:32:05.286Z,101780.47
2022-10-12T07:34:31.910Z,101788.38
2022-10-12T07:36:59.923Z,101786.63
2022-10-12T07:39:27.117Z,101795.44
2022-10-12T07:41:54.321Z,101798.06
2022-10-12T07:44:21.303Z,101799.81
2022-10-12T07:46:48.273Z,101798.94
2022-10-12T07:49:15.820Z,101790.22
2022-10-12T07:51:43.195Z,101796.34
2022-10-12T07:54:16.457Z,101798.97
2022-10-12T07:56:46.750Z,101800.75
2022-10-12T07:59:13.391Z,101810.38
2022-10-12T08:01:40.088Z,101807.72
2022-10-12T08:04:06.733Z,101805.13
2022-10-12T08:06:34.304Z,101810.38
2022-10-12T08:09:02.144Z,101818.28
2022-10-12T08:11:29.723Z,101810.34
2022-10-12T08:13:56.416Z,101820.00
2022-10-12T08:16:24.028Z,101817.38
2022-10-12T08:18:51.202Z,101813.81
2022-10-12T08:21:18.366Z,101816.44
2022-10-12T08:23:45.741Z,101812.88
2022-10-12T08:26:13.671Z,101811.06
2022-10-12T08:28:41.091Z,101804.84
2022-10-12T08:31:16.569Z,101806.50
2022-10-12T08:33:43.525Z,101804.72
2022-10-12T08:36:11.906Z,101810.84
2022-10-12T08:38:39.049Z,101814.31
2022-10-12T08:41:22.728Z,101816.03
2022-10-12T08:44:21.840Z,101816.00
2022-10-12T08:46:49.282Z,101816.84
2022-10-12T08:49:22.676Z,101811.50
2022-10-12T08:51:55.421Z,101818.47
2022-10-12T08:54:31.028Z,101817.56
2022-10-12T08:56:58.136Z,101823.69
2022-10-12T08:59:26.301Z,101816.56
2022-10-12T09:01:59.440Z,101820.91
2022-10-12T09:04:49.286Z,101825.22
2022-10-12T09:07:43.961Z,101823.38
2022-10-12T09:10:25.902Z,101817.13
2022-10-12T09:12:59.480Z,101810.81
2022-10-12T09:15:33.493Z,101810.69
2022-10-12T09:18:02.749Z,101816.75
2022-10-12T09:20:35.271Z,101806.06
2022-10-12T09:23:30.741Z,101816.50
2022-10-12T09:26:07.242Z,101819.00
2022-10-12T09:28:37.733Z,101821.56
2022-10-12T09:31:08.108Z,101813.53
2022-10-12T09:33:57.129Z,101817.81
2022-10-12T09:36:26.672Z,101816.78
2022-10-12T09:38:53.864Z,101813.09
2022-10-12T09:41:32.662Z,101825.31
2022-10-12T09:44:01.739Z,101812.75
2022-10-12T09:46:40.523Z,101818.81
2022-10-12T09:49:07.203Z,101822.09
2022-10-12T09:51:34.172Z,101829.75
2022-10-12T09:54:05.956Z,101825.06
2022-10-12T09:56:44.431Z,101830.19
2022-10-12T09:59:29.231Z,101831.97
2022-10-12T10:02:12.144Z,101837.28
2022-10-12T10:04:40.448Z,101833.75
2022-10-12T10:07:30.416Z,101841.78
2022-10-12T10:10:10.270Z,101839.13
2022-10-12T10:12:58.994Z,101831.13
2022-10-12T10:15:28.030Z,101825.75
2022-10-12T10:18:00.674Z,101835.41
2022-10-12T10:20:29.899Z,101837.09
2022-10-12T10:22:57.174Z,101830.88
2022-10-12T10:25:24.703Z,101834.31
2022-10-12T10:28:11.361Z,101831.59
2022-10-12T10:30:41.039Z,101842.06
2022-10-12T10:33:19.093Z,101833.19
2022-10-12T10:36:18.098Z,101846.44
2022-10-12T10:39:05.559Z,101845.47
2022-10-12T10:41:37.429Z,101844.50
2022-10-12T10:44:06.422Z,101839.84
2022-10-12T10:46:36.406Z,101830.03
2022-10-12T10:49:21.239Z,101830.81
2022-10-12T10:51:53.237Z,101839.63
2022-10-12T10:54:23.067Z,101828.97
2022-10-12T10:56:53.293Z,101828.06
2022-10-12T10:59:47.711Z,101834.28
2022-10-12T11:02:38.468Z,101832.56
2022-10-12T11:05:18.235Z,101829.84
2022-10-12T11:07:51.307Z,101833.31
2022-10-12T11:10:24.687Z,101835.00
2022-10-12T11:12:57.387Z,101836.75
2022-10-12T11:15:44.650Z,101844.63
2022-10-12T11:18:22.134Z,101839.31
2022-10-12T11:21:04.497Z,101840.16
2022-10-12T11:23:55.091Z,101833.00
2022-10-12T11:26:32.090Z,101835.50
2022-10-12T11:29:00.675Z,101828.22
2022-10-12T11:31:34.402Z,101839.50
2022-10-12T11:34:13.321Z,101830.56
2022-10-12T11:37:07.424Z,101838.47
2022-10-12T11:39:37.185Z,101836.72
2022-10-12T11:42:21.275Z,101834.94
2022-10-12T11:44:49.011Z,101842.91
2022-10-12T11:47:25.749Z,101839.31
2022-10-12T11:50:33.143Z,101830.59
2022-10-12T11:53:02.386Z,101828.03
2022-10-12T11:55:41.158Z,101836.97
2022-10-12T11:58:24.410Z,101826.41
2022-10-12T12:01:07.370Z,101832.53
2022-10-12T12:03:46.091Z,101834.31
2022-10-12T12:06:30.999Z,101833.56
2022-10-12T12:09:03.609Z,101835.50
2022-10-12T12:11:32.866Z,101830.31
2022-10-12T12:14:21.131Z,101825.00
2022-10-12T12:16:49.633Z,101829.44
2022-10-12T12:19:37.817Z,101828.59
2022-10-12T12:22:16.334Z,101825.09
2022-10-12T12:25:00.270Z,101825.09
2022-10-12T12:27:33.906Z,101832.28
2022-10-12T12:30:03.099Z,101830.59
2022-10-12T12:33:06.787Z,101823.63
2022-10-12T12:36:04.888Z,101822.81
2022-10-12T12:38:49.435Z,101827.25
2022-10-12T12:41:21.479Z,101815.72
2022-10-12T12:43:57.030Z,101817.50
2022-10-12T12:46:45.284Z,101821.13
2022-10-12T12:49:39.764Z,101824.72
2022-10-12T12:52:11.013Z,101821.19
2022-10-12T12:54:53.166Z,101821.13
2022-10-12T12:57:35.245Z,101826.50
2022-10-12T13:00:10.996Z,101820.38
2022-10-12T13:02:49.336Z,101818.59
2022-10-12T13:05:24.955Z,101823.03
2022-10-12T13:07:54.268Z,101822.13
2022-10-12T13:10:36.081Z,101816.81
2022-10-12T13:13:38.823Z,101821.31
2022-10-12T13:17:23.850Z,101816.88
2022-10-12T13:19:22.541Z,101816.88
2022-10-12T13:21:52.370Z,101825.75
2022-10-12T13:24:49.467Z,101823.91
2022-10-12T13:27:40.974Z,101821.25
2022-10-12T13:30:10.565Z,101823.91
2022-10-12T13:32:59.313Z,101829.22
2022-10-12T13:36:06.321Z,101829.22
2022-10-12T13:38:35.383Z,101824.78
2022-10-12T13:41:13.195Z,101822.13
2022-10-12T13:43:46.524Z,101819.47
2022-10-12T13:46:42.862Z,101817.72
2022-10-12T13:49:20.179Z,101814.22
2022-10-12T13:51:53.233Z,101818.66
2022-10-12T13:54:47.785Z,101815.19
2022-10-12T13:57:39.247Z,101819.63
2022-10-12T14:00:17.868Z,101809.94
2022-10-12T14:03:08.621Z,101821.41
2022-10-12T14:05:44.320Z,101816.97
2022-10-12T14:08:15.588Z,101817.78
2022-10-12T14:10:44.562Z,101819.63
2022-10-12T14:13:17.845Z,101816.97
2022-10-12T14:15:44.699Z,101815.25
2022-10-12T14:18:39.276Z,101813.56
2022-10-12T14:21:23.399Z,101825.06
2022-10-12T14:24:07.169Z,101819.84
2022-10-12T14:26:37.272Z,101821.63
2022-10-12T14:29:25.291Z,101825.22
2022-10-12T14:31:57.413Z,101825.25
2022-10-12T14:34:27.158Z,101821.75
2022-10-12T14:37:24.124Z,101822.72
2022-10-12T14:39:52.421Z,101829.88
2022-10-12T14:42:18.957Z,101832.63
2022-10-12T14:44:45.586Z,101831.75
2022-10-12T14:47:33.122Z,101826.47
2022-10-12T14:50:01.634Z,101816.81
2022-10-12T14:52:28.565Z,101826.59
2022-10-12T14:54:57.809Z,101817.84
2022-10-12T14:57:27.131Z,101813.50
2022-10-12T14:59:53.825Z,101819.75
2022-10-12T15:02:27.171Z,101811.00
2022-10-12T15:04:54.423Z,101811.13
2022-10-12T15:07:24.003Z,101805.88
2022-10-12T15:09:51.257Z,101804.22
2022-10-12T15:12:26.574Z,101799.00
2022-10-12T15:14:56.130Z,101802.59
2022-10-12T15:17:22.832Z,101805.28
2022-10-12T15:19:50.999Z,101806.25
2022-10-12T15:22:21.737Z,101806.31
2022-10-12T15:24:49.458Z,101803.72
2022-10-12T15:27:16.257Z,101800.25
2022-10-12T15:29:44.005Z,101801.19
2022-10-12T15:32:12.457Z,101795.94
2022-10-12T15:34:39.475Z,101804.81
2022-10-12T15:37:12.062Z,101812.81
2022-10-12T15:39:38.871Z,101805.78
2022-10-12T15:42:05.586Z,101798.81
2022-10-12T15:44:39.345Z,101811.22
2022-10-12T15:47:08.959Z,101807.75
2022-10-12T15:49:35.566Z,101808.72
2022-10-12T15:52:02.256Z,101801.72
2022-10-12T15:54:28.888Z,101809.75
2022-10-12T15:56:55.720Z,101804.53
2022-10-12T15:59:22.598Z,101801.03
2022-10-12T16:01:49.198Z,101801.97
2022-10-12T16:04:21.512Z,101800.31
2022-10-12T16:06:48.122Z,101802.16
2022-10-12T16:09:16.159Z,101807.50
2022-10-12T16:11:42.770Z,101804.03
2022-10-12T16:14:15.788Z,101799.69
2022-10-12T16:16:42.370Z,101802.34
2022-10-12T16:19:09.234Z,101809.41
2022-10-12T16:21:35.850Z,101804.19
2022-10-12T16:24:04.404Z,101795.41
2022-10-12T16:26:33.167Z,101797.25
2022-10-12T16:28:59.922Z,101792.03
2022-10-12T16:31:26.578Z,101796.47
2022-10-12T16:33:53.177Z,101800.97
2022-10-12T16:36:19.780Z,101802.75
2022-10-12T16:38:46.383Z,101795.75
2022-10-12T16:41:15.851Z,101794.06
2022-10-12T16:43:43.207Z,101789.69
2022-10-12T16:46:10.175Z,101799.50
2022-10-12T16:48:37.095Z,101803.97
2022-10-12T16:51:14.920Z,101802.25
2022-10-12T16:53:44.435Z,101803.16
2022-10-12T16:56:11.218Z,101796.13
2022-10-12T16:58:41.092Z,101797.94
2022-10-12T17:01:12.148Z,101803.28
2022-10-12T17:03:38.839Z,101808.63
2022-10-12T17:06:05.770Z,101806.94
2022-10-12T17:08:35.638Z,101804.31
2022-10-12T17:11:07.238Z,101806.16
2022-10-12T17:13:36.696Z,101796.47
2022-10-12T17:16:23.527Z,101793.91
2022-10-12T17:18:58.159Z,101801.00
2022-10-12T17:21:26.273Z,101800.13
2022-10-12T17:23:56.223Z,101794.91
2022-10-12T17:26:22.979Z,101799.34
2022-10-12T17:28:49.879Z,101788.81
2022-10-12T17:31:16.656Z,101793.22
2022-10-12T17:33:43.493Z,101795.84
2022-10-12T17:36:11.164Z,101800.25
2022-10-12T17:38:37.762Z,101809.03
2022-10-12T17:41:05.377Z,101801.16
2022-10-12T17:43:32.349Z,101802.91
2022-10-12T17:45:59.221Z,101798.56
2022-10-12T17:48:25.845Z,101805.63
2022-10-12T17:50:52.443Z,101797.69
2022-10-12T17:53:22.244Z,101789.81
2022-10-12T17:55:49.264Z,101793.34
2022-10-12T17:58:15.974Z,101795.97
2022-10-12T18:00:42.597Z,101795.09
2022-10-12T18:03:09.463Z,101797.81
2022-10-12T18:05:36.152Z,101796.03
2022-10-12T18:08:03.015Z,101796.94
2022-10-12T18:10:29.662Z,101793.47
2022-10-12T18:12:56.286Z,101799.66
2022-10-12T18:15:23.269Z,101793.50
2022-10-12T18:17:50.675Z,101789.13
2022-10-12T18:20:18.599Z,101791.75
2022-10-12T18:22:45.239Z,101795.31
2022-10-12T18:25:11.883Z,101790.03
2022-10-12T18:27:38.566Z,101790.94
2022-10-12T18:30:05.583Z,101788.31
2022-10-12T18:32:32.166Z,101790.94
2022-10-12T18:34:58.775Z,101787.44
2022-10-12T18:37:25.384Z,101787.41
2022-10-12T18:39:52.242Z,101789.16
2022-10-12T18:42:19.172Z,101782.13
2022-10-12T18:44:45.995Z,101795.31
2022-10-12T18:47:14.736Z,101786.50
2022-10-12T18:49:41.404Z,101783.88
2022-10-12T18:52:08.021Z,101788.28
2022-10-12T18:54:34.638Z,101786.53
2022-10-12T18:57:01.592Z,101783.91
2022-10-12T18:59:28.292Z,101780.38
2022-10-12T19:01:54.999Z,101780.38
2022-10-12T19:04:21.717Z,101776.84
2022-10-12T19:06:48.362Z,101772.41
2022-10-12T19:09:14.985Z,101775.94
2022-10-12T19:11:41.757Z,101779.44
2022-10-12T19:14:15.667Z,101782.06
2022-10-12T19:16:53.518Z,101774.19
2022-10-12T19:19:21.594Z,101782.09
2022-10-12T19:21:50.282Z,101772.50
2022-10-12T19:24:18.057Z,101770.72
2022-10-12T19:26:44.839Z,101781.25
2022-10-12T19:29:14.794Z,101781.25
2022-10-12T19:31:45.571Z,101781.28
2022-10-12T19:34:14.314Z,101784.81
2022-10-12T19:36:41.638Z,101779.53
2022-10-12T19:39:12.590Z,101780.44
2022-10-12T19:41:40.106Z,101786.59
2022-10-12T19:44:06.930Z,101788.34
2022-10-12T19:46:33.854Z,101786.59
2022-10-12T19:49:00.714Z,101784.84
2022-10-12T19:51:29.422Z,101781.34
2022-10-12T19:53:57.850Z,101790.13
2022-10-12T19:56:25.865Z,101784.00
2022-10-12T19:58:55.563Z,101778.72
2022-10-12T20:01:28.603Z,101784.88
2022-10-12T20:03:58.416Z,101778.72
2022-10-12T20:06:28.587Z,101777.84
2022-10-12T20:08:57.870Z,101775.25
2022-10-12T20:11:25.189Z,101777.88
2022-10-12T20:13:52.537Z,101782.25
2022-10-12T20:16:20.390Z,101785.75
2022-10-12T20:18:47.637Z,101791.03
2022-10-12T20:21:16.491Z,101784.91
2022-10-12T20:23:43.768Z,101787.56
2022-10-12T20:26:14.798Z,101775.28
2022-10-12T20:28:41.513Z,101772.63
2022-10-12T20:31:08.353Z,101773.53
2022-10-12T20:33:37.612Z,101767.34
2022-10-12T20:36:08.723Z,101769.97
2022-10-12T20:38:35.360Z,101772.63
2022-10-12T20:41:06.920Z,101775.28
2022-10-12T20:43:33.803Z,101774.41
2022-10-12T20:46:05.156Z,101770.88
2022-10-12T20:48:32.550Z,101763.00
2022-10-12T20:50:59.597Z,101762.09
2022-10-12T20:53:28.618Z,101764.75
2022-10-12T20:55:57.259Z,101770.88
2022-10-12T20:58:28.030Z,101759.47
2022-10-12T21:01:12.743Z,101757.69
2022-10-12T21:03:53.467Z,101748.03
2022-10-12T21:06:22.746Z,101762.06
2022-10-12T21:08:50.913Z,101750.63
2022-10-12T21:11:19.060Z,101756.81
2022-10-12T21:13:46.127Z,101757.69
2022-10-12T21:16:14.294Z,101749.78
2022-10-12T21:18:44.023Z,101747.16
2022-10-12T21:21:21.092Z,101749.78
2022-10-12T21:24:01.297Z,101754.16
2022-10-12T21:26:30.085Z,101748.91
2022-10-12T21:28:58.999Z,101752.41
2022-10-12T21:31:31.821Z,101759.41
2022-10-12T21:34:01.788Z,101751.53
2022-10-12T21:36:29.568Z,101749.75
2022-10-12T21:38:59.873Z,101750.63
2022-10-12T21:41:30.949Z,101748.84
2022-10-12T21:43:59.900Z,101750.59
2022-10-12T21:46:34.047Z,101750.63
2022-10-12T21:49:02.170Z,101750.63
2022-10-12T21:51:31.473Z,101754.16
2022-10-12T21:53:58.474Z,101747.09
2022-10-12T21:56:30.581Z,101744.47
2022-10-12T21:59:02.674Z,101743.59
2022-10-12T22:01:35.939Z,101745.34
2022-10-12T22:04:06.828Z,101746.22
2022-10-12T22:06:34.934Z,101749.75
2022-10-12T22:09:08.111Z,101748.84
2022-10-12T22:11:36.832Z,101740.06
2022-10-12T22:14:07.363Z,101744.47
2022-10-12T22:16:34.273Z,101745.31
2022-10-12T22:19:02.687Z,101743.59
2022-10-12T22:21:32.651Z,101746.22
2022-10-12T22:24:02.568Z,101749.72
2022-10-12T22:26:32.128Z,101749.72
2022-10-12T22:29:00.419Z,101745.31
2022-10-12T22:31:27.590Z,101738.28
2022-10-12T22:33:55.288Z,101742.69
2022-10-12T22:36:24.614Z,101752.31
2022-10-12T22:38:51.254Z,101746.16
2022-10-12T22:41:22.164Z,101744.34
2022-10-12T22:43:53.737Z,101727.69
2022-10-12T22:46:22.437Z,101747.84
2022-10-12T22:48:49.799Z,101739.06
2022-10-12T22:51:22.686Z,101743.44
2022-10-12T22:53:49.341Z,101742.56
2022-10-12T22:56:19.657Z,101746.94
2022-10-12T22:58:48.841Z,101745.19
2022-10-12T23:01:17.333Z,101748.72
2022-10-12T23:03:46.568Z,101736.41
2022-10-12T23:06:16.001Z,101738.16
2022-10-12T23:08:46.122Z,101737.31
2022-10-12T23:11:19.152Z,101740.81
2022-10-12T23:13:48.900Z,101736.44
2022-10-12T23:16:23.987Z,101742.59
2022-10-12T23:18:59.097Z,101739.09
2022-10-12T23:21:30.366Z,101749.66
2022-10-12T23:24:01.222Z,101744.41
2022-10-12T23:26:30.729Z,101734.78
2022-10-12T23:28:57.786Z,101740.91
2022-10-12T23:31:27.793Z,101735.63
2022-10-12T23:33:56.494Z,101734.78
2022-10-12T23:36:23.110Z,101729.50
2022-10-12T23:38:49.807Z,101734.78
2022-10-12T23:41:16.414Z,101729.53
2022-10-12T23:43:46.640Z,101733.06
2022-10-12T23:46:13.423Z,101731.28
2022-10-12T23:48:43.040Z,101731.31
2022-10-12T23:51:09.846Z,101726.03
2022-10-12T23:53:41.949Z,101733.91
2022-10-12T23:56:11.813Z,101728.66
2022-10-12T23:58:38.763Z,101733.94
